Time;durP1;ratioP1;P1;durP2;ratioP2;P2;SDS_P1;SDS_P2;PMS_P1;PMS_P2;Temp;Humidity;BMP_temperature;BMP_pressure;BME280_temperature;BME280_humidity;BME280_pressure;Samples;Min_cycle;Max_cycle;Signal;HPM_P1;HPM_P2
2021/11/15 00:00:37;;;;;;;74.30;48.73;;;;;;;7.59;67.25;100602.42;1747260;80;21954;-39
2021/11/15 00:03:03;;;;;;;75.42;48.33;;;;;;;7.56;67.34;100598.42;1749718;80;21629;-38
2021/11/15 00:05:30;;;;;;;80.28;49.55;;;;;;;7.57;67.29;100595.97;1745394;81;21049;-38
2021/11/15 00:07:57;;;;;;;81.45;50.30;;;;;;;7.54;67.31;100591.20;1762378;80;21048;-37
2021/11/15 00:10:23;;;;;;;76.82;48.33;;;;;;;7.51;67.39;100591.80;1769829;80;21581;-38
2021/11/15 00:12:51;;;;;;;71.07;46.35;;;;;;;7.50;67.47;100589.43;1747005;80;21004;-38
2021/11/15 00:15:19;;;;;;;76.37;46.70;;;;;;;7.56;67.47;100588.97;1758728;80;21553;-38
2021/11/15 00:17:48;;;;;;;81.17;51.18;;;;;;;7.63;67.42;100599.34;1772256;80;21567;-38
2021/11/15 00:20:16;;;;;;;76.92;49.48;;;;;;;7.66;67.44;100600.86;1777197;80;21539;-38
2021/11/15 00:22:42;;;;;;;78.07;49.05;;;;;;;7.66;67.45;100604.11;1759775;80;21048;-38
2021/11/15 00:25:11;;;;;;;84.62;53.00;;;;;;;7.66;67.53;100604.11;1772237;79;21134;-39
2021/11/15 00:27:38;;;;;;;72.97;48.38;;;;;;;7.66;67.45;100599.51;1785358;79;20904;-38
2021/11/15 00:30:06;;;;;;;75.17;48.33;;;;;;;7.62;67.45;100603.14;1786139;79;21015;-38
2021/11/15 00:32:34;;;;;;;54.25;35.83;;;;;;;7.64;67.49;100598.23;1768926;79;21031;-38
2021/11/15 00:35:01;;;;;;;70.30;47.00;;;;;;;7.71;67.34;100590.48;1766258;80;21027;-38
2021/11/15 00:37:28;;;;;;;71.30;48.02;;;;;;;7.80;67.25;100591.31;1766795;79;21095;-38
2021/11/15 00:39:55;;;;;;;72.27;48.13;;;;;;;7.80;67.10;100599.41;1772329;78;20923;-38
2021/11/15 00:42:21;;;;;;;74.53;49.13;;;;;;;7.82;67.10;100602.61;1695446;83;20913;-38
2021/11/15 00:44:49;;;;;;;74.10;48.42;;;;;;;7.82;67.06;100591.27;1724649;83;21020;-38
2021/11/15 00:47:15;;;;;;;75.90;47.95;;;;;;;7.85;66.94;100597.38;1732294;81;21329;-38
2021/11/15 00:49:43;;;;;;;77.78;49.53;;;;;;;7.89;66.89;100600.25;1729960;81;21094;-38
2021/11/15 00:52:09;;;;;;;72.20;46.40;;;;;;;7.87;66.77;100605.18;1750517;81;21793;-38
2021/11/15 00:54:37;;;;;;;74.82;46.80;;;;;;;7.84;66.75;100603.88;1730517;82;20989;-39
2021/11/15 00:57:04;;;;;;;70.17;47.83;;;;;;;7.85;66.81;100595.23;1761202;80;21519;-38
2021/11/15 00:59:32;;;;;;;76.35;48.55;;;;;;;7.55;66.81;100545.55;1781264;80;21486;-38
2021/11/15 01:02:00;;;;;;;78.28;49.70;;;;;;;7.90;66.82;100591.05;1773039;80;21148;-38
2021/11/15 01:04:27;;;;;;;81.02;52.45;;;;;;;7.91;66.80;100599.39;1760764;80;21034;-38
2021/11/15 01:06:55;;;;;;;80.03;51.92;;;;;;;7.93;66.80;100611.24;1761062;80;21525;-38
2021/11/15 01:09:22;;;;;;;77.45;50.35;;;;;;;7.93;66.69;100617.44;1778330;80;21549;-38
2021/11/15 01:11:50;;;;;;;77.42;50.15;;;;;;;7.91;66.65;100608.05;1770875;80;21083;-38
2021/11/15 01:14:17;;;;;;;79.35;49.30;;;;;;;7.88;66.70;100611.38;1763172;80;21102;-38
2021/11/15 01:16:44;;;;;;;68.87;45.58;;;;;;;7.89;66.73;100611.05;1767962;80;20971;-40
2021/11/15 01:19:12;;;;;;;73.00;48.92;;;;;;;7.94;66.62;100604.74;1766806;80;21000;-39
2021/11/15 01:21:41;;;;;;;77.10;48.83;;;;;;;7.95;66.56;100600.36;1762501;80;21492;-38
2021/11/15 01:24:08;;;;;;;80.03;51.58;;;;;;;7.92;66.58;100609.09;1782140;80;21529;-39
2021/11/15 01:26:38;;;;;;;84.03;52.60;;;;;;;7.87;66.62;100617.33;1787753;80;21111;-38
2021/11/15 01:29:04;;;;;;;78.50;51.42;;;;;;;7.77;66.76;100611.64;1769356;78;21079;-39
2021/11/15 01:31:31;;;;;;;83.45;53.78;;;;;;;7.69;66.97;100617.80;1789371;80;21071;-38
2021/11/15 01:33:57;;;;;;;83.97;50.55;;;;;;;7.65;67.13;100630.88;1778512;80;21352;-38
2021/11/15 01:36:24;;;;;;;84.22;52.67;;;;;;;7.62;67.19;100639.57;1775361;80;21070;-38
2021/11/15 01:38:50;;;;;;;87.10;51.23;;;;;;;7.60;67.36;100637.75;1791810;80;21133;-38
2021/11/15 01:41:17;;;;;;;84.50;54.35;;;;;;;7.58;67.56;100631.85;1769286;80;20936;-38
2021/11/15 01:43:44;;;;;;;82.80;54.45;;;;;;;7.53;67.72;100625.23;1760814;80;21287;-38
2021/11/15 01:46:10;;;;;;;80.42;52.62;;;;;;;7.48;67.97;100623.45;1761344;80;21044;-38
2021/11/15 01:48:37;;;;;;;84.15;53.68;;;;;;;7.52;67.96;100622.28;1766508;80;20988;-38
2021/11/15 01:51:03;;;;;;;81.32;50.95;;;;;;;7.51;67.89;100630.92;1717564;81;21051;-38
2021/11/15 01:53:30;;;;;;;71.90;47.13;;;;;;;7.48;67.85;100628.05;1746650;81;20920;-39
2021/11/15 01:55:57;;;;;;;79.60;50.50;;;;;;;7.50;67.90;100621.27;1729745;83;21545;-37
2021/11/15 01:58:24;;;;;;;79.53;51.00;;;;;;;7.55;67.83;100622.45;1730110;83;21543;-38
2021/11/15 02:00:54;;;;;;;79.42;51.92;;;;;;;7.56;67.80;100624.60;1676172;83;21041;-38
2021/11/15 02:03:22;;;;;;;82.55;53.52;;;;;;;7.58;67.78;100621.86;1729822;83;21541;-37
2021/11/15 02:05:49;;;;;;;86.30;53.33;;;;;;;7.55;67.72;100616.28;1724441;83;21019;-39
2021/11/15 02:08:16;;;;;;;81.30;52.60;;;;;;;7.51;67.86;100617.98;1729205;83;21040;-39
2021/11/15 02:10:43;;;;;;;81.82;50.63;;;;;;;7.47;67.92;100629.15;1730136;83;21096;-38
2021/11/15 02:13:14;;;;;;;81.87;51.80;;;;;;;7.44;68.04;100627.88;1754388;81;21040;-38
2021/11/15 02:15:41;;;;;;;82.92;52.73;;;;;;;7.45;68.00;100628.68;1708641;83;21099;-39
2021/11/15 02:18:08;;;;;;;84.92;54.10;;;;;;;7.42;68.17;100628.73;1732050;81;21063;-38
2021/11/15 02:20:53;;;;;;;80.35;54.75;;;;;;;7.40;68.40;100625.55;1715608;83;21051;-38
2021/11/15 02:23:21;;;;;;;87.65;55.38;;;;;;;7.41;68.43;100631.97;1728251;81;20988;-39
2021/11/15 02:25:50;;;;;;;84.62;53.33;;;;;;;7.38;68.50;100627.20;1713831;83;21118;-38
2021/11/15 02:28:16;;;;;;;85.38;53.00;;;;;;;7.04;68.50;100579.75;1715414;83;21128;-39
2021/11/15 02:30:43;;;;;;;82.85;52.65;;;;;;;7.35;68.48;100631.88;1699403;83;21035;-38
2021/11/15 02:33:10;;;;;;;84.72;52.93;;;;;;;7.36;68.49;100633.99;1754633;80;21020;-39
2021/11/15 02:35:37;;;;;;;89.10;54.23;;;;;;;7.35;68.57;100633.22;1777356;80;20976;-38
2021/11/15 02:38:05;;;;;;;86.92;55.35;;;;;;;7.32;68.72;100635.16;1777483;80;21044;-38
2021/11/15 02:40:31;;;;;;;88.58;56.98;;;;;;;7.33;68.85;100644.86;1762428;80;21077;-38
2021/11/15 02:43:00;;;;;;;86.97;54.45;;;;;;;7.31;68.84;100652.45;1749787;80;20964;-38
2021/11/15 02:45:27;;;;;;;87.10;54.05;;;;;;;7.28;68.91;100655.77;1756456;80;21599;-38
2021/11/15 02:47:54;;;;;;;89.10;53.70;;;;;;;7.29;68.92;100661.41;1764523;80;21594;-48
2021/11/15 02:50:24;;;;;;;81.10;54.15;;;;;;;7.38;68.84;100669.56;1766879;80;21535;-38
2021/11/15 02:52:55;;;;;;;;;;;;;;;7.40;68.78;100672.77;1762654;80;21093;-37
2021/11/15 02:55:22;;;;;;;90.03;55.28;;;;;;;7.42;68.87;100674.59;1761300;80;20182;-38
2021/11/15 02:57:49;;;;;;;92.67;57.80;;;;;;;7.37;69.08;100674.16;1752022;80;21031;-38
2021/11/15 03:00:25;;;;;;;90.47;55.85;;;;;;;7.43;68.88;100689.13;1757596;80;21099;-38
2021/11/15 03:02:53;;;;;;;97.08;58.17;;;;;;;7.43;68.76;100692.38;1775143;80;21052;-38
2021/11/15 03:05:33;;;;;;;88.62;53.68;;;;;;;7.42;68.74;100686.19;1756142;80;21629;-38
2021/11/15 03:08:02;;;;;;;87.57;55.63;;;;;;;7.43;68.67;100687.78;1768456;80;21008;-38
2021/11/15 03:10:29;;;;;;;88.62;53.60;;;;;;;7.51;68.61;100680.84;1754103;80;20944;-38
2021/11/15 03:12:56;;;;;;;90.80;56.88;;;;;;;7.57;68.42;100688.27;1773037;79;21016;-38
2021/11/15 03:15:29;;;;;;;92.70;57.90;;;;;;;7.57;68.41;100685.57;1758626;80;21538;-38
2021/11/15 03:18:01;;;;;;;96.10;58.78;;;;;;;7.55;68.32;100686.45;1775362;80;21152;-37
2021/11/15 03:20:34;;;;;;;92.80;58.00;;;;;;;7.52;68.39;100692.44;1777625;80;21030;-38
2021/11/15 03:23:07;;;;;;;97.67;59.58;;;;;;;7.48;68.52;100690.11;1772557;80;21102;-39
2021/11/15 03:25:35;;;;;;;92.72;56.73;;;;;;;7.45;68.55;100690.73;1752360;81;21031;-38
2021/11/15 03:28:01;;;;;;;93.58;57.43;;;;;;;7.38;68.71;100693.84;1756509;80;20984;-39
2021/11/15 03:30:28;;;;;;;96.30;58.23;;;;;;;7.39;68.72;100692.20;1784337;80;21118;-42
2021/11/15 03:32:55;;;;;;;93.70;57.48;;;;;;;7.37;68.73;100689.00;1758651;80;21027;-38
2021/11/15 03:35:22;;;;;;;96.55;59.93;;;;;;;7.31;68.92;100688.86;1759387;80;21037;-45
2021/11/15 03:37:49;;;;;;;96.57;59.80;;;;;;;7.26;69.07;100690.91;1762896;80;21549;-39
2021/11/15 03:40:20;;;;;;;99.50;59.25;;;;;;;7.20;69.19;100695.61;1753301;80;21035;-38
2021/11/15 03:42:48;;;;;;;95.47;57.48;;;;;;;7.18;69.37;100703.20;1772972;80;21741;-39
2021/11/15 03:45:15;;;;;;;95.42;57.55;;;;;;;7.15;69.42;100709.20;1778287;80;21011;-38
2021/11/15 03:47:41;;;;;;;94.07;59.53;;;;;;;7.09;69.53;100706.38;1777678;80;21491;-39
2021/11/15 03:50:09;;;;;;;101.62;62.30;;;;;;;7.06;69.74;100705.64;1779321;80;20980;-38
2021/11/15 03:52:39;;;;;;;100.20;61.88;;;;;;;6.98;69.97;100712.53;1781703;80;21048;-38
2021/11/15 03:55:07;;;;;;;101.33;58.17;;;;;;;6.93;70.22;100709.14;1781550;80;21089;-39
2021/11/15 03:57:34;;;;;;;96.97;59.18;;;;;;;6.91;70.38;100714.05;1755989;80;20941;-38
2021/11/15 04:00:03;;;;;;;100.20;61.20;;;;;;;6.93;70.37;100719.38;1752983;81;21088;-38
2021/11/15 04:02:33;;;;;;;103.38;61.00;;;;;;;6.94;70.31;100718.28;1753251;80;21067;-38
2021/11/15 04:04:59;;;;;;;105.75;61.53;;;;;;;6.89;70.51;100728.37;1767996;80;21009;-37
2021/11/15 04:07:41;;;;;;;103.67;60.95;;;;;;;6.86;70.54;100723.04;1773110;80;21947;-38
2021/11/15 04:10:15;;;;;;;105.00;59.18;;;;;;;6.80;70.64;100734.22;1753368;81;21027;-38
2021/11/15 04:12:42;;;;;;;98.52;58.87;;;;;;;6.73;70.83;100734.61;1767554;80;21083;-39
2021/11/15 04:15:10;;;;;;;103.17;60.67;;;;;;;6.71;70.97;100732.78;1784058;80;20959;-44
2021/11/15 04:17:37;;;;;;;109.15;63.65;;;;;;;6.69;71.06;100734.16;1767029;80;21554;-38
2021/11/15 04:20:05;;;;;;;105.67;63.33;;;;;;;6.64;71.25;100738.30;1776338;80;21082;-38
2021/11/15 04:22:32;;;;;;;109.00;60.00;;;;;;;6.60;71.42;100741.35;1778096;80;21047;-38
2021/11/15 04:24:58;;;;;;;104.07;58.55;;;;;;;6.59;71.49;100744.59;1760305;80;21480;-39
2021/11/15 04:27:25;;;;;;;98.25;58.08;;;;;;;6.61;71.51;100743.75;1759436;81;21068;-38
2021/11/15 04:29:51;;;;;;;104.67;60.12;;;;;;;6.65;71.51;100747.99;1769046;80;21601;-37
2021/11/15 04:32:19;;;;;;;104.72;61.33;;;;;;;6.66;71.57;100750.39;1769227;81;21207;-38
2021/11/15 04:34:46;;;;;;;111.97;62.48;;;;;;;6.66;71.73;100754.98;1742140;81;21064;-38
2021/11/15 04:37:13;;;;;;;109.50;59.50;;;;;;;6.63;71.81;100752.35;1739981;81;21562;-38
2021/11/15 04:39:40;;;;;;;107.78;58.35;;;;;;;6.64;71.73;100767.94;1743328;81;20960;-38
2021/11/15 04:42:06;;;;;;;103.67;57.83;;;;;;;6.64;71.65;100758.52;1744638;81;21653;-37
2021/11/15 04:44:33;;;;;;;104.75;57.88;;;;;;;6.65;71.61;100764.96;1748491;81;21862;-38
2021/11/15 04:46:59;;;;;;;111.45;59.45;;;;;;;6.63;71.61;100769.06;1769857;81;21029;-38
2021/11/15 04:49:26;;;;;;;103.27;56.90;;;;;;;6.59;71.63;100771.53;1758819;81;20992;-38
2021/11/15 04:51:53;;;;;;;100.53;54.80;;;;;;;6.54;71.80;100768.39;1766384;81;21028;-38
2021/11/15 04:54:19;;;;;;;109.87;55.70;;;;;;;6.55;71.77;100768.64;1764301;81;21098;-38
2021/11/15 04:56:46;;;;;;;101.38;55.75;;;;;;;6.57;71.78;100771.59;1746212;81;21849;-46
2021/11/15 04:59:12;;;;;;;100.65;55.58;;;;;;;6.57;71.83;100783.72;1742702;81;20980;-38
2021/11/15 05:01:39;;;;;;;102.58;55.43;;;;;;;6.54;71.88;100785.91;1746840;81;20972;-38
2021/11/15 05:04:05;;;;;;;98.82;52.70;;;;;;;6.53;71.82;100796.42;1746449;81;21064;-38
2021/11/15 05:06:33;;;;;;;96.28;51.02;;;;;;;6.46;71.99;100793.33;1745530;81;21048;-38
2021/11/15 05:08:59;;;;;;;103.10;54.77;;;;;;;6.48;72.04;100797.89;1751164;81;21042;-38
2021/11/15 05:11:26;;;;;;;106.37;55.98;;;;;;;6.49;72.09;100794.62;1744208;81;22071;-38
2021/11/15 05:13:53;;;;;;;105.37;55.45;;;;;;;6.44;72.35;100799.55;1741853;82;20933;-38
2021/11/15 05:16:19;;;;;;;101.45;54.23;;;;;;;6.40;72.50;100805.29;1741888;81;21001;-38
2021/11/15 05:18:46;;;;;;;97.12;49.55;;;;;;;6.40;72.57;100809.33;1737470;81;21800;-38
2021/11/15 05:21:12;;;;;;;96.25;53.20;;;;;;;6.41;72.65;100814.97;1747912;81;21116;-37
2021/11/15 05:23:40;;;;;;;111.95;55.45;;;;;;;6.39;72.63;100813.11;1755733;81;21014;-38
2021/11/15 05:26:08;;;;;;;105.67;51.90;;;;;;;6.36;72.81;100823.14;1762086;80;21024;-38
2021/11/15 05:28:34;;;;;;;98.65;51.00;;;;;;;6.33;72.89;100831.83;1754854;81;20968;-38
2021/11/15 05:31:01;;;;;;;100.87;51.55;;;;;;;6.28;73.04;100835.94;1765866;81;21539;-38
2021/11/15 05:33:27;;;;;;;96.75;50.33;;;;;;;6.30;73.13;100837.78;1742356;81;21090;-38
2021/11/15 05:35:54;;;;;;;97.78;51.45;;;;;;;6.30;73.16;100843.16;1747112;81;20945;-38
2021/11/15 05:38:20;;;;;;;101.35;52.95;;;;;;;6.29;73.26;100844.28;1762003;81;21515;-38
2021/11/15 05:40:47;;;;;;;101.15;51.02;;;;;;;6.27;73.33;100854.53;1744345;81;21035;-38
2021/11/15 05:43:13;;;;;;;104.58;49.03;;;;;;;6.26;73.41;100850.78;1771974;81;21467;-41
2021/11/15 05:45:40;;;;;;;95.62;49.30;;;;;;;6.27;73.38;100857.23;1748101;81;21049;-39
2021/11/15 05:48:07;;;;;;;98.58;51.42;;;;;;;6.26;73.41;100862.36;1764764;81;21583;-38
2021/11/15 05:50:33;;;;;;;95.25;49.93;;;;;;;6.24;73.48;100868.60;1742071;82;20972;-38
2021/11/15 05:53:00;;;;;;;98.15;49.33;;;;;;;6.23;73.66;100869.69;1742030;81;21000;-38
2021/11/15 05:55:28;;;;;;;95.00;49.08;;;;;;;6.23;73.73;100876.97;1749092;81;21024;-38
2021/11/15 05:57:56;;;;;;;96.85;49.42;;;;;;;6.26;73.78;100876.37;1771873;81;21112;-38
2021/11/15 06:00:25;;;;;;;96.95;50.00;;;;;;;6.30;73.71;100876.83;1769000;80;21087;-38
2021/11/15 06:02:53;;;;;;;106.65;51.48;;;;;;;6.31;73.64;100881.67;1749172;81;21605;-38
2021/11/15 06:05:19;;;;;;;97.70;48.92;;;;;;;6.28;73.60;100880.38;1752320;81;20989;-38
2021/11/15 06:07:47;;;;;;;88.50;47.60;;;;;;;6.22;73.67;100884.24;1741659;81;21021;-38
2021/11/15 06:10:15;;;;;;;90.75;47.58;;;;;;;6.20;73.73;100885.06;1741757;82;21032;-38
2021/11/15 06:12:43;;;;;;;95.67;49.10;;;;;;;6.25;73.77;100888.22;1738482;81;21015;-39
2021/11/15 06:15:13;;;;;;;93.52;49.38;;;;;;;6.29;73.83;100892.77;1748779;81;21036;-37
2021/11/15 06:17:39;;;;;;;;;;;;;;;6.33;73.75;100897.81;1745257;81;21001;-38
2021/11/15 06:20:08;;;;;;;94.67;47.27;;;;;;;6.33;73.49;100899.16;1765308;81;20156;-38
2021/11/15 06:22:35;;;;;;;91.63;48.48;;;;;;;6.23;73.70;100902.00;1755389;80;21598;-39
2021/11/15 06:25:01;;;;;;;90.97;48.48;;;;;;;6.28;73.62;100897.89;1741560;81;21095;-37
2021/11/15 06:27:29;;;;;;;95.05;48.17;;;;;;;6.32;73.57;100898.89;1741902;82;21008;-51
2021/11/15 06:29:55;;;;;;;99.25;51.30;;;;;;;6.36;73.53;100895.86;1745268;81;21103;-38
2021/11/15 06:32:22;;;;;;;90.50;46.88;;;;;;;6.39;73.46;100899.30;1743772;81;21810;-38
2021/11/15 06:34:49;;;;;;;88.37;46.60;;;;;;;6.42;73.35;100901.43;1754012;80;21788;-38
2021/11/15 06:37:16;;;;;;;99.45;49.77;;;;;;;6.45;73.22;100910.27;1700951;84;21193;-38
2021/11/15 06:40:44;;;;;;;100.45;50.43;;;;;;;6.52;73.18;100922.02;1839659;76;22629;-38
2021/11/15 06:43:11;;;;;;;91.28;49.58;;;;;;;6.45;73.30;100921.58;1793824;79;21008;-39
2021/11/15 06:45:37;;;;;;;93.07;47.73;;;;;;;6.49;73.25;100924.74;1839935;77;22320;-39
2021/11/15 06:48:05;;;;;;;84.52;46.18;;;;;;;6.52;73.04;100926.87;1821197;76;21203;-38
2021/11/15 06:50:31;;;;;;;86.10;46.73;;;;;;;6.55;72.82;100932.20;1811857;78;20905;-38
2021/11/15 06:52:58;;;;;;;90.57;48.65;;;;;;;6.58;72.61;100928.13;1825944;78;20944;-38
2021/11/15 06:55:25;;;;;;;88.55;47.83;;;;;;;6.56;72.54;100927.07;1826507;77;20909;-38
2021/11/15 06:57:52;;;;;;;87.30;45.60;;;;;;;6.55;72.64;100930.85;1825577;78;21824;-38
2021/11/15 07:00:22;;;;;;;92.95;47.95;;;;;;;6.58;72.54;100930.83;1839697;78;21543;-39
2021/11/15 07:02:50;;;;;;;90.07;47.38;;;;;;;6.64;72.43;100937.71;1828637;77;21756;-38
2021/11/15 07:05:18;;;;;;;89.92;47.80;;;;;;;6.65;72.25;100940.66;1819890;78;21020;-39
2021/11/15 07:07:45;;;;;;;84.17;47.65;;;;;;;6.65;72.31;100940.66;1823421;77;21022;-39
2021/11/15 07:10:12;;;;;;;93.05;47.83;;;;;;;6.68;72.27;100946.84;1825224;78;21117;-38
2021/11/15 07:12:39;;;;;;;91.10;48.08;;;;;;;6.69;72.08;100949.76;1813795;78;20954;-38
2021/11/15 07:15:07;;;;;;;90.28;47.67;;;;;;;6.73;72.08;100946.75;1816063;78;20991;-38
2021/11/15 07:17:34;;;;;;;81.22;46.28;;;;;;;6.81;71.97;100958.20;1805681;78;20948;-38
2021/11/15 07:20:02;;;;;;;90.50;47.58;;;;;;;6.80;71.97;100959.28;1831327;77;21016;-35
2021/11/15 07:22:30;;;;;;;92.92;48.83;;;;;;;6.83;71.76;100964.08;1826177;78;21062;-35
2021/11/15 07:24:57;;;;;;;95.03;49.35;;;;;;;6.79;71.48;100961.72;1810834;77;20917;-36
2021/11/15 07:27:23;;;;;;;85.47;46.20;;;;;;;6.79;71.57;100973.84;1795262;78;20925;-35
2021/11/15 07:29:50;;;;;;;76.22;43.58;;;;;;;6.78;71.58;100966.31;1786515;79;21031;-35
2021/11/15 07:32:17;;;;;;;88.37;46.50;;;;;;;6.86;71.43;100967.55;1728315;80;21049;-35
2021/11/15 07:34:44;;;;;;;94.50;48.52;;;;;;;6.91;71.16;100966.92;1750944;79;21168;-35
2021/11/15 07:37:11;;;;;;;92.20;47.75;;;;;;;6.90;71.00;100971.25;1768792;79;21772;-35
2021/11/15 07:39:46;;;;;;;86.42;46.65;;;;;;;6.89;70.86;100976.38;1771460;80;20995;-36
2021/11/15 07:42:07;;;;;;;85.38;45.78;;;;;;;6.88;70.82;100980.17;1774101;80;21016;-35
2021/11/15 07:44:33;;;;;;;81.00;45.73;;;;;;;6.90;70.80;100983.38;1755915;79;21010;-35
2021/11/15 07:47:00;;;;;;;85.07;45.90;;;;;;;6.93;70.71;100988.17;1761647;79;21111;-37
2021/11/15 07:49:26;;;;;;;79.07;44.58;;;;;;;6.99;70.61;100987.80;1760096;80;21044;-35
2021/11/15 07:51:53;;;;;;;85.85;45.12;;;;;;;6.98;70.41;100985.39;1749771;80;21000;-36
2021/11/15 07:54:19;;;;;;;84.80;46.20;;;;;;;6.98;70.54;100999.67;1758777;79;21496;-36
2021/11/15 07:56:46;;;;;;;92.60;47.03;;;;;;;7.01;70.54;101000.20;1762888;79;21076;-36
2021/11/15 07:59:13;;;;;;;86.87;44.55;;;;;;;7.02;70.36;100997.76;1750030;80;21163;-36
2021/11/15 08:01:39;;;;;;;81.08;43.00;;;;;;;7.04;70.25;100992.30;1760507;79;20926;-36
2021/11/15 08:04:06;;;;;;;79.05;43.85;;;;;;;7.10;70.17;100999.22;1770508;79;20979;-36
2021/11/15 08:06:33;;;;;;;83.35;46.63;;;;;;;7.14;69.66;101002.12;1762615;79;20976;-36
2021/11/15 08:09:00;;;;;;;88.72;46.23;;;;;;;7.09;69.50;101008.40;1777418;80;21037;-36
2021/11/15 08:11:31;;;;;;;81.65;44.90;;;;;;;7.04;69.52;101009.84;1778111;80;21921;-36
2021/11/15 08:13:58;;;;;;;88.50;45.95;;;;;;;6.98;69.53;101015.05;1776789;80;20977;-37
2021/11/15 08:16:30;;;;;;;61.63;30.88;;;;;;;6.95;69.68;101019.70;1763561;80;21028;-35
2021/11/15 08:18:57;;;;;;;88.22;44.08;;;;;;;6.94;69.70;101022.94;1777487;80;21038;-36
2021/11/15 08:21:24;;;;;;;77.78;43.65;;;;;;;6.98;69.68;101029.87;1760915;79;21053;-35
2021/11/15 08:23:51;;;;;;;79.65;43.73;;;;;;;6.99;69.68;101030.14;1751165;78;21894;-36
2021/11/15 08:26:39;;;;;;;83.03;45.23;;;;;;;6.99;69.49;101029.59;1754271;80;21053;-36
2021/11/15 08:29:08;;;;;;;79.82;44.15;;;;;;;6.99;69.50;101032.84;1773556;79;21004;-36
2021/11/15 08:31:37;;;;;;;80.12;42.70;;;;;;;6.70;69.37;100979.66;1777343;80;21056;-36
2021/11/15 08:34:03;;;;;;;79.72;41.30;;;;;;;7.04;69.15;101027.91;1776677;80;21057;-36
2021/11/15 08:36:30;;;;;;;74.45;42.50;;;;;;;7.08;68.99;101035.11;1778211;79;21134;-36
2021/11/15 08:39:09;;;;;;;73.25;40.63;;;;;;;7.11;69.08;101033.73;1771386;79;21116;-36
2021/11/15 08:41:38;;;;;;;73.45;41.88;;;;;;;7.16;68.86;101035.80;1804253;78;21577;-36
2021/11/15 08:44:08;;;;;;;72.03;40.83;;;;;;;7.18;68.46;101040.88;1819525;78;20935;-36
2021/11/15 08:46:34;;;;;;;72.82;40.83;;;;;;;7.17;68.32;101037.37;1777483;79;22049;-35
2021/11/15 08:49:05;;;;;;;69.58;39.48;;;;;;;7.13;68.40;101041.77;1764624;80;21142;-36
2021/11/15 08:51:32;;;;;;;67.55;38.65;;;;;;;7.15;68.22;101043.64;1788352;78;21028;-36
2021/11/15 08:53:59;;;;;;;66.47;39.42;;;;;;;7.23;68.30;101051.04;1747059;82;21633;-35
2021/11/15 08:56:26;;;;;;;65.00;39.03;;;;;;;7.29;68.09;101047.17;1766373;79;21487;-36
2021/11/15 08:58:54;;;;;;;66.35;38.92;;;;;;;7.32;67.62;101045.76;1773387;79;21037;-36
2021/11/15 09:01:21;;;;;;;64.00;38.63;;;;;;;7.28;67.08;101052.30;1778009;80;21136;-35
2021/11/15 09:03:51;;;;;;;65.78;38.40;;;;;;;7.24;67.24;101050.50;1775687;79;21044;-35
2021/11/15 09:06:17;;;;;;;57.35;35.63;;;;;;;7.22;67.02;101049.98;1755942;79;21096;-36
2021/11/15 09:08:44;;;;;;;61.77;36.58;;;;;;;7.21;66.46;101052.45;1772573;80;20976;-35
2021/11/15 09:11:12;;;;;;;58.90;36.48;;;;;;;7.23;66.11;101049.69;1778153;80;21041;-36
2021/11/15 09:13:41;;;;;;;59.88;35.17;;;;;;;7.21;66.21;101047.83;1761900;79;21083;-35
2021/11/15 09:16:09;;;;;;;62.78;36.48;;;;;;;7.23;66.12;101051.04;1769558;79;21526;-46
2021/11/15 09:18:36;;;;;;;56.53;34.70;;;;;;;7.24;65.84;101051.30;1747292;82;21575;-35
2021/11/15 09:21:06;;;;;;;62.23;35.10;;;;;;;7.27;65.70;101043.95;1747110;82;21909;-36
2021/11/15 09:23:36;;;;;;;61.92;34.43;;;;;;;7.31;65.55;101047.66;1751820;79;20953;-36
2021/11/15 09:26:02;;;;;;;54.60;33.33;;;;;;;7.37;65.23;101051.07;1774686;79;21150;-36
2021/11/15 09:28:29;;;;;;;52.48;32.80;;;;;;;7.48;65.03;101053.05;1795846;79;20938;-36
2021/11/15 09:30:56;;;;;;;60.00;34.05;;;;;;;7.61;64.72;101052.26;1756131;79;20960;-35
2021/11/15 09:33:23;;;;;;;57.20;33.28;;;;;;;7.75;64.33;101046.32;1747173;80;21008;-35
2021/11/15 09:35:50;;;;;;;53.20;32.78;;;;;;;7.84;63.16;101045.91;1758579;79;21519;-36
2021/11/15 09:38:19;;;;;;;49.80;31.45;;;;;;;7.88;62.32;101048.25;1747040;82;21362;-35
2021/11/15 09:40:49;;;;;;;50.43;31.65;;;;;;;7.86;62.09;101046.38;1761932;80;21583;-36
2021/11/15 09:43:17;;;;;;;50.10;31.17;;;;;;;7.84;62.05;101048.60;1808624;78;21544;-36
2021/11/15 09:45:44;;;;;;;47.40;30.15;;;;;;;7.93;62.25;101052.20;1767542;80;21482;-35
2021/11/15 09:48:12;;;;;;;45.55;29.25;;;;;;;8.11;62.05;101050.48;1763450;81;21596;-36
2021/11/15 09:50:39;;;;;;;45.10;27.55;;;;;;;8.38;60.42;101038.84;1768376;80;21829;-35
2021/11/15 09:53:07;;;;;;;40.28;26.70;;;;;;;8.57;59.17;101039.50;1794909;80;20995;-36
2021/11/15 09:55:34;;;;;;;40.73;26.45;;;;;;;8.71;58.31;101038.94;1789903;78;21890;-35
2021/11/15 09:58:01;;;;;;;41.20;27.15;;;;;;;8.85;57.46;101046.44;1794580;78;20999;-35
2021/11/15 10:00:29;;;;;;;36.80;25.40;;;;;;;8.98;57.28;101047.48;1795026;80;20991;-36
2021/11/15 10:02:56;;;;;;;39.38;26.17;;;;;;;9.09;56.31;101048.29;1794797;80;21175;-36
2021/11/15 10:05:23;;;;;;;39.60;27.32;;;;;;;9.20;55.93;101054.80;1794375;80;20979;-35
2021/11/15 10:07:56;;;;;;;41.65;27.60;;;;;;;9.33;55.50;101053.92;1796538;78;20982;-36
2021/11/15 10:10:39;;;;;;;41.77;28.15;;;;;;;9.41;55.57;101058.58;1795071;78;20956;-36
2021/11/15 10:13:12;;;;;;;40.03;28.12;;;;;;;9.50;55.39;101058.88;1797021;78;21020;-36
2021/11/15 10:16:05;;;;;;;40.17;27.45;;;;;;;9.59;55.19;101061.61;1781595;80;21102;-36
2021/11/15 10:18:46;;;;;;;40.95;27.00;;;;;;;9.71;55.29;101067.81;1793393;80;20880;-36
2021/11/15 10:21:33;;;;;;;40.30;26.62;;;;;;;9.83;54.21;101068.81;1793620;80;22086;-37
2021/11/15 10:24:19;;;;;;;37.10;25.37;;;;;;;9.92;54.27;101065.58;1793377;78;20972;-36
2021/11/15 10:26:58;;;;;;;34.53;25.27;;;;;;;10.11;53.70;101065.91;1795022;80;20971;-36
2021/11/15 10:29:33;;;;;;;38.45;25.40;;;;;;;10.25;52.99;101073.38;1773748;80;21111;-36
2021/11/15 10:32:16;;;;;;;35.58;25.02;;;;;;;10.35;52.30;101081.22;1771151;78;21014;-36
2021/11/15 10:34:47;;;;;;;37.63;26.15;;;;;;;10.44;52.29;101083.39;1765805;80;20955;-36
2021/11/15 10:37:18;;;;;;;37.55;25.10;;;;;;;10.55;51.62;101083.89;1765047;80;20924;-36
2021/11/15 10:40:06;;;;;;;33.75;25.05;;;;;;;10.57;51.63;101086.52;1763124;81;21014;-36
2021/11/15 10:42:44;;;;;;;35.73;24.37;;;;;;;10.51;50.94;101086.97;1758632;80;21787;-36
2021/11/15 10:45:21;;;;;;;31.33;23.65;;;;;;;10.30;51.83;101092.21;1772583;80;20948;-36
2021/11/15 10:47:56;;;;;;;35.48;24.77;;;;;;;10.22;51.51;101092.97;1780198;80;20983;-36
2021/11/15 10:50:48;;;;;;;32.15;23.70;;;;;;;10.09;51.44;101094.66;1765635;80;21505;-36
2021/11/15 10:53:23;;;;;;;34.88;24.27;;;;;;;9.95;51.94;101095.33;1761024;78;21007;-36
2021/11/15 10:56:18;;;;;;;34.48;24.35;;;;;;;9.88;52.17;101099.83;1771342;80;21141;-36
2021/11/15 10:58:50;;;;;;;35.85;24.77;;;;;;;9.92;52.51;101111.63;1776550;80;20936;-36
2021/11/15 11:01:18;;;;;;;34.27;25.32;;;;;;;10.11;52.26;101120.10;1787341;80;21557;-35
2021/11/15 11:03:45;;;;;;;34.05;25.48;;;;;;;10.13;52.21;101120.57;1788491;80;21569;-36
2021/11/15 11:06:16;;;;;;;35.75;25.02;;;;;;;10.16;52.26;101120.80;1783116;78;21456;-36
2021/11/15 11:08:46;;;;;;;33.00;23.00;;;;;;;10.21;52.05;101126.62;1757505;81;21138;-36
2021/11/15 11:11:18;;;;;;;30.15;23.30;;;;;;;10.12;52.03;101129.25;1784826;79;21504;-36
2021/11/15 11:14:01;;;;;;;31.50;23.55;;;;;;;9.98;52.15;101130.72;1756419;79;21023;-36
2021/11/15 11:16:49;;;;;;;32.98;24.18;;;;;;;9.88;52.52;101128.27;1751319;79;20957;-36
2021/11/15 11:19:36;;;;;;;35.43;23.60;;;;;;;9.78;52.68;101127.19;1774106;80;21040;-36
2021/11/15 11:23:07;;;;;;;33.50;24.15;;;;;;;9.64;53.08;101129.18;1767081;79;21105;-36
2021/11/15 11:27:27;;;;;;;32.30;24.10;;;;;;;9.30;54.09;101124.89;1751443;80;21080;-36